createdAt,value
2023-02-13T00:00:06.833Z,-2.69
2023-02-13T00:05:12.463Z,-2.65
2023-02-13T00:10:18.790Z,-2.61
2023-02-13T00:15:24.499Z,-2.56
2023-02-13T00:20:29.250Z,-2.57
2023-02-13T00:25:34.342Z,-2.53
2023-02-13T00:30:39.240Z,-2.45
2023-02-13T00:35:45.784Z,-2.41
2023-02-13T00:40:50.504Z,-2.36
2023-02-13T00:45:55.080Z,-2.32
2023-02-13T00:51:02.073Z,-2.33
2023-02-13T00:56:10.122Z,-2.16
2023-02-13T01:01:16.436Z,-1.99
2023-02-13T01:06:20.920Z,-1.80
2023-02-13T01:11:25.997Z,-1.62
2023-02-13T01:16:31.250Z,-1.35
2023-02-13T01:21:37.156Z,-1.15
2023-02-13T01:26:42.136Z,-0.97
2023-02-13T01:31:47.287Z,-0.72
2023-02-13T01:36:52.727Z,-0.60
2023-02-13T01:41:58.013Z,-0.43
2023-02-13T01:47:03.304Z,-0.18
2023-02-13T01:52:13.524Z,-0.04
2023-02-13T01:57:23.739Z,0.14
2023-02-13T02:02:31.862Z,0.31
2023-02-13T02:07:39.858Z,0.51
2023-02-13T02:12:54.113Z,0.60
2023-02-13T02:18:01.092Z,0.79
2023-02-13T02:23:43.803Z,0.99
2023-02-13T02:29:09.554Z,1.11
2023-02-13T02:34:39.054Z,1.22
2023-02-13T02:39:53.034Z,1.27
2023-02-13T02:45:19.622Z,1.33
2023-02-13T02:50:45.240Z,1.55
2023-02-13T02:55:56.672Z,1.78
2023-02-13T03:01:21.216Z,1.77
2023-02-13T03:06:47.291Z,1.95
2023-02-13T03:12:10.979Z,1.94
2023-02-13T03:17:37.811Z,1.87
2023-02-13T03:22:59.277Z,1.96
2023-02-13T03:28:49.743Z,2.11
2023-02-13T03:34:12.914Z,2.17
2023-02-13T03:39:33.720Z,2.30
2023-02-13T03:44:44.197Z,2.39
2023-02-13T03:50:08.206Z,2.38
2023-02-13T03:55:37.643Z,2.56
2023-02-13T04:00:46.669Z,2.65
2023-02-13T04:05:58.526Z,2.78
2023-02-13T04:11:19.392Z,2.92
2023-02-13T04:16:32.070Z,2.99
2023-02-13T04:21:38.498Z,2.99
2023-02-13T04:26:45.557Z,3.16
2023-02-13T04:31:50.480Z,3.21
2023-02-13T04:36:56.014Z,3.23
2023-02-13T04:42:00.678Z,3.41
2023-02-13T04:47:07.146Z,3.51
2023-02-13T04:52:14.061Z,3.61
2023-02-13T04:57:20.379Z,3.67
2023-02-13T05:02:26.129Z,3.72
2023-02-13T05:07:32.252Z,3.76
2023-02-13T05:12:37.008Z,3.78
2023-02-13T05:17:42.820Z,3.89
2023-02-13T05:23:07.595Z,3.89
2023-02-13T05:28:31.958Z,3.98
2023-02-13T05:33:37.771Z,4.09
2023-02-13T05:38:44.074Z,4.08
2023-02-13T05:43:49.477Z,4.15
2023-02-13T05:48:55.471Z,4.18
2023-02-13T05:54:00.598Z,4.18
2023-02-13T05:59:05.947Z,4.18
2023-02-13T06:04:11.195Z,4.07
2023-02-13T06:09:16.270Z,4.11
2023-02-13T06:14:21.523Z,4.09
2023-02-13T06:19:26.736Z,4.14
2023-02-13T06:24:31.835Z,4.17
2023-02-13T06:29:38.065Z,4.31
2023-02-13T06:34:44.253Z,4.29
2023-02-13T06:39:49.274Z,4.41
2023-02-13T06:44:54.564Z,4.51
2023-02-13T06:50:00.846Z,4.43
2023-02-13T06:55:06.521Z,4.40
2023-02-13T07:00:14.498Z,4.45
2023-02-13T07:05:20.174Z,4.39
2023-02-13T07:10:27.035Z,4.39
2023-02-13T07:15:32.382Z,4.40
2023-02-13T07:20:38.355Z,4.47
2023-02-13T07:25:43.193Z,4.73
2023-02-13T07:30:49.420Z,4.76
2023-02-13T07:35:54.949Z,4.71
2023-02-13T07:41:05.432Z,4.79
2023-02-13T07:46:12.118Z,4.67
2023-02-13T07:51:17.653Z,4.63
2023-02-13T07:56:23.782Z,4.59
2023-02-13T08:01:29.610Z,4.51
2023-02-13T08:06:34.709Z,4.41
2023-02-13T08:11:55.257Z,4.28
2023-02-13T08:17:02.277Z,4.23
2023-02-13T08:22:07.324Z,4.20
2023-02-13T08:27:17.210Z,4.26
2023-02-13T08:32:22.659Z,4.19
2023-02-13T08:37:28.952Z,4.20
2023-02-13T08:42:34.046Z,4.11
2023-02-13T08:47:39.514Z,4.05
2023-02-13T08:52:44.546Z,3.93
2023-02-13T08:57:50.443Z,3.90
2023-02-13T09:02:55.860Z,3.74
2023-02-13T09:08:05.234Z,3.54
2023-02-13T09:13:09.864Z,3.55
2023-02-13T09:18:15.949Z,3.42
2023-02-13T09:23:21.043Z,3.28
2023-02-13T09:28:27.062Z,3.03
2023-02-13T09:33:33.950Z,3.03
2023-02-13T09:38:39.841Z,2.92
2023-02-13T09:44:12.265Z,2.87
2023-02-13T09:49:22.052Z,2.73
2023-02-13T09:54:28.443Z,2.60
2023-02-13T09:59:38.404Z,2.59
2023-02-13T10:04:58.918Z,2.47
2023-02-13T10:10:23.282Z,2.39
2023-02-13T10:15:41.178Z,2.38
2023-02-13T10:20:49.457Z,2.21
2023-02-13T10:26:07.571Z,2.23
2023-02-13T10:31:19.880Z,2.17
2023-02-13T10:36:29.614Z,2.03
2023-02-13T10:42:03.687Z,2.05
2023-02-13T10:47:12.882Z,2.02
2023-02-13T10:52:35.948Z,2.00
2023-02-13T10:58:04.806Z,1.90
2023-02-13T11:03:20.107Z,1.94
2023-02-13T11:08:37.907Z,1.96
2023-02-13T11:13:44.390Z,1.81
2023-02-13T11:18:53.763Z,1.80
2023-02-13T11:23:59.286Z,1.67
2023-02-13T11:29:17.725Z,1.66
2023-02-13T11:34:30.039Z,1.59
2023-02-13T11:39:34.965Z,1.57
2023-02-13T11:44:40.901Z,1.47
2023-02-13T11:49:49.587Z,1.50
2023-02-13T11:55:05.514Z,1.49
2023-02-13T12:00:35.006Z,1.39
2023-02-13T12:05:39.719Z,1.28
2023-02-13T12:10:46.153Z,1.28
2023-02-13T12:16:01.647Z,1.24
2023-02-13T12:21:31.558Z,1.13
2023-02-13T12:26:44.154Z,1.09
2023-02-13T12:32:04.076Z,1.04
2023-02-13T12:37:18.964Z,1.09
2023-02-13T12:42:46.723Z,0.98
2023-02-13T12:48:06.696Z,0.96
2023-02-13T12:53:49.500Z,0.90
2023-02-13T12:59:09.761Z,0.95
2023-02-13T13:04:46.044Z,0.89
2023-02-13T13:10:30.742Z,0.85
2023-02-13T13:15:49.492Z,0.78
2023-02-13T13:21:23.116Z,0.81
2023-02-13T13:26:44.846Z,0.75
2023-02-13T13:31:59.533Z,0.69
2023-02-13T13:37:11.719Z,0.55
2023-02-13T13:42:23.983Z,0.57
2023-02-13T13:47:44.366Z,0.54
2023-02-13T13:53:07.977Z,0.59
2023-02-13T13:59:02.420Z,0.59
2023-02-13T14:04:37.104Z,0.58
2023-02-13T14:09:46.259Z,0.53
2023-02-13T14:14:56.465Z,0.44
2023-02-13T14:20:03.351Z,0.40
2023-02-13T14:25:24.590Z,0.42
2023-02-13T14:30:43.207Z,0.40
2023-02-13T14:36:05.698Z,0.47
2023-02-13T14:41:46.616Z,0.43
2023-02-13T14:46:57.110Z,0.46
2023-02-13T14:52:10.828Z,0.40
2023-02-13T14:57:29.564Z,0.46
2023-02-13T15:02:44.263Z,0.45
2023-02-13T15:07:55.432Z,0.48
2023-02-13T15:13:04.179Z,0.49
2023-02-13T15:18:21.147Z,0.38
2023-02-13T15:23:30.577Z,0.32
2023-02-13T15:28:38.776Z,0.28
2023-02-13T15:33:51.173Z,0.23
2023-02-13T15:39:07.122Z,0.22
2023-02-13T15:44:23.159Z,0.16
2023-02-13T15:49:33.800Z,0.16
2023-02-13T15:54:50.787Z,0.16
2023-02-13T16:00:00.480Z,0.12
2023-02-13T16:05:07.551Z,0.09
2023-02-13T16:10:35.495Z,0.10
2023-02-13T16:15:46.942Z,0.00
2023-02-13T16:20:57.903Z,-0.02
2023-02-13T16:26:15.695Z,-0.02
2023-02-13T16:31:21.667Z,-0.01
2023-02-13T16:36:31.197Z,-0.11
2023-02-13T16:41:38.433Z,-0.14
2023-02-13T16:46:50.935Z,-0.14
2023-02-13T16:52:01.510Z,-0.14
2023-02-13T16:57:08.013Z,-0.16
2023-02-13T17:02:33.258Z,-0.20
2023-02-13T17:07:50.516Z,-0.28
2023-02-13T17:12:59.344Z,-0.25
2023-02-13T17:18:04.937Z,-0.28
2023-02-13T17:23:16.886Z,-0.19
2023-02-13T17:28:32.457Z,-0.14
2023-02-13T17:33:39.470Z,-0.11
2023-02-13T17:38:44.107Z,-0.15
2023-02-13T17:43:50.364Z,-0.07
2023-02-13T17:48:56.546Z,-0.01
2023-02-13T17:54:02.892Z,0.12
2023-02-13T17:59:08.692Z,0.07
2023-02-13T18:04:14.478Z,0.05
2023-02-13T18:09:19.127Z,0.03
2023-02-13T18:14:24.470Z,0.03
2023-02-13T18:19:29.330Z,-0.03
2023-02-13T18:24:36.411Z,-0.14
2023-02-13T18:29:42.762Z,-0.25
2023-02-13T18:34:47.830Z,-0.35
2023-02-13T18:39:52.392Z,-0.47
2023-02-13T18:44:58.058Z,-0.51
2023-02-13T18:50:02.669Z,-0.56
2023-02-13T18:55:11.965Z,-0.55
2023-02-13T19:00:19.586Z,-0.57
2023-02-13T19:05:24.154Z,-0.65
2023-02-13T19:10:29.847Z,-0.77
2023-02-13T19:15:34.411Z,-0.85
2023-02-13T19:20:41.132Z,-1.02
2023-02-13T19:25:46.777Z,-1.19
2023-02-13T19:30:52.957Z,-1.32
2023-02-13T19:36:02.307Z,-1.50
2023-02-13T19:41:08.295Z,-1.63
2023-02-13T19:46:16.244Z,-1.75
2023-02-13T19:51:23.772Z,-1.78
2023-02-13T19:56:31.152Z,-1.76
2023-02-13T20:01:37.444Z,-1.77
2023-02-13T20:06:42.474Z,-1.80
2023-02-13T20:11:48.319Z,-1.83
2023-02-13T20:16:53.767Z,-1.86
2023-02-13T20:21:58.571Z,-1.93
2023-02-13T20:27:03.198Z,-1.96
2023-02-13T20:32:09.511Z,-2.03
2023-02-13T20:37:18.111Z,-2.06
2023-02-13T20:42:23.868Z,-2.13
2023-02-13T20:47:29.566Z,-2.15
2023-02-13T20:52:35.172Z,-2.19
2023-02-13T20:57:41.704Z,-2.19
2023-02-13T21:02:46.262Z,-2.19
2023-02-13T21:07:50.902Z,-2.17
2023-02-13T21:12:57.069Z,-2.11
2023-02-13T21:18:02.896Z,-2.13
2023-02-13T21:23:08.329Z,-2.16
2023-02-13T21:28:12.959Z,-2.23
2023-02-13T21:33:17.701Z,-2.32
2023-02-13T21:38:24.168Z,-2.44
2023-02-13T21:43:28.873Z,-2.62
2023-02-13T21:48:33.476Z,-2.69
2023-02-13T21:53:38.387Z,-2.77
2023-02-13T21:58:44.452Z,-2.82
2023-02-13T22:03:49.610Z,-2.84
2023-02-13T22:09:09.905Z,-2.87
2023-02-13T22:14:18.321Z,-2.80
2023-02-13T22:19:23.216Z,-2.76
2023-02-13T22:24:28.903Z,-2.78
2023-02-13T22:29:33.506Z,-2.82
2023-02-13T22:34:38.175Z,-2.93
2023-02-13T22:39:43.471Z,-3.02
2023-02-13T22:44:48.050Z,-3.03
2023-02-13T22:49:52.568Z,-3.02
2023-02-13T22:54:57.259Z,-3.01
2023-02-13T23:00:02.100Z,-3.00
2023-02-13T23:05:06.863Z,-2.96
2023-02-13T23:10:12.277Z,-2.88
2023-02-13T23:15:18.216Z,-2.79
2023-02-13T23:20:23.651Z,-2.73
2023-02-13T23:25:28.428Z,-2.62
2023-02-13T23:30:34.070Z,-2.58
2023-02-13T23:35:38.707Z,-2.57
2023-02-13T23:40:43.381Z,-2.61
2023-02-13T23:45:47.999Z,-2.67
2023-02-13T23:50:54.406Z,-2.73
2023-02-13T23:55:59.059Z,-2.67
